Airfield :
LOGIN :

Register | Disclaimer

   EN    FR    IT 

 










Legend :    VFR   Marginal VFR   IFR   Intensive IFR   Very Intensive IFR
Visi :
Ceiling :
>= 8 km
>= 3000ft
5 to 8 km
1000 to 3000 ft
1500m to 5 km
500 to 1000 ft
800 to 1500m
200 to 500 ft
< 800m
< 200 ft
Symbols :   Thunderstorms  Fog  Heavy snow  Heavy precipitations  Wind > 20 kt
SIGMETs :     Misc.  Thunderstorms  Icing  Turbulence  Mountain Waves  Volcanic Ashes






- Airport Elevation : 26 ft
- IATA code : SYY


EGPO - Stornoway

CURRENT METAR :
  • 022020Z AUTO 34003KT 9999 OVC027/// 13/09 Q1013

EXPIRED METARs :
  • 021950Z AUTO 33003KT 9999 OVC028/// 14/09 Q1013
  • 021920Z AUTO 02003KT 9999 OVC029/// 14/09 Q1013
  • 021850Z AUTO VRB03KT 9999 OVC030/// 14/10 Q1013
  • 021820Z 15007KT 9999 BKN035 14/09 Q1013
  • 021750Z 15009KT 9999 BKN035 14/09 Q1013

TAF TAF EGPO
Valid from the 02 at 21:00 until the 03 at 06:00 UTC


021955Z 0221/0306 16005KT 9999 SCT030
ATIS : +44 1851 707 444



MET'MAP, your aeronautical weather chart ! - Copyright ORBIFLY December 2007 - Disclaimer

ORBIFLY MET'MAP TEAM :

Programming & Development : Alexandra Zaïnal
Concept & original design : Baudouin d'Aumeries
Assistance for programming : Marc-Olivier Méhu
Technical & hardware support : Manuel Goepfert

Contact : metmap@orbifly.com




SOURCES & CREDITS :

   NOAA